DRZR

Details ICAO DRZR (ZND)
Name ZINDER
Region Niger
Timezone Africa/Niamey (UTC+1.0)
Plans Departing 3
Arriving 3
Stats Elevation 1,516 ft / 462 m (AMSL)
Location 13.778996° 8.983761°
Runways 1
Magnetic Variation 0.226° E
Sunrise 2017-12-15 05:41:04 UTC / 2017-12-15 06:41:04 Local
Sunset 2017-12-15 17:00:08 UTC / 2017-12-15 18:00:08 Local
Advertisement - Login to hide

Runways

ID Width Length Bearing (true) Bearing (mag) Surface Threshold Offset Overrun Length
05 98 ft / 30 m 6,013 ft / 1,833 m 53.09° 52.86° Asphalt 0 ft / 0 m 0 ft / 0 m
23 98 ft / 30 m 6,013 ft / 1,833 m 233.09° 232.86° Asphalt 0 ft / 0 m 0 ft / 0 m

Map

Weather


0- 5 10 15 20 25 30 35+ Temperature / ° C

Clouds and Precipitation
Forecast for 2017-12-15 06:00 UTC. Updated an hour ago

Ground ~20,000 ft ~40,000 ft Winds

METAR

DRZR 150600Z 04004KT 0800 DU NSC 20/04 Q1015

TAF

TAF DRZR 150500Z 1506/1606 06008KT 4000 DU NSC TEMPO 1506/1510 0600 BECMG 1512/1514 6000 NSW

Frequencies

Tower 118.30 MHz TWR
Warning: Do not use this data for real-world aviation or navigation. No guarantee of current accuracy is given.